Time;durP1;ratioP1;P1;durP2;ratioP2;P2;SDS_P1;SDS_P2;PMS_P1;PMS_P2;Temp;Humidity;BMP_temperature;BMP_pressure;BME280_temperature;BME280_humidity;BME280_pressure;Samples;Min_cycle;Max_cycle;Signal;HPM_P1;HPM_P2
2022/06/22 00:01:40;;;;;;;4.80;3.25;;;;;;;;;;6226188;28;20277;-84
2022/06/22 00:04:44;;;;;;;5.78;2.90;;;;;;;;;;6222089;28;20093;-82
2022/06/22 00:07:50;;;;;;;8.30;2.72;;;;;;;;;;6216928;28;20241;-84
2022/06/22 00:10:54;;;;;;;4.85;2.72;;;;;;;;;;6221743;28;20096;-81
2022/06/22 00:13:58;;;;;;;5.07;2.60;;;;;;;;;;6226758;28;20100;-83
2022/06/22 00:17:01;;;;;;;4.82;2.92;;;;;;;;;;6219801;28;20099;-84
2022/06/22 00:20:05;;;;;;;;;;;;;;;;;;6219308;28;20056;-84
2022/06/22 00:23:26;;;;;;;4.63;3.08;;;;;;;;;;6220319;28;20296;-84
2022/06/22 00:26:32;;;;;;;6.43;3.45;;;;;;;;;;6220573;28;20058;-82
2022/06/22 00:29:35;;;;;;;6.40;3.25;;;;;;;;;;6227509;28;20059;-84
2022/06/22 00:32:37;;;;;;;;;;;;;;;;;;6222813;28;20054;-84
2022/06/22 00:35:50;;;;;;;11.40;3.27;;;;;;;;;;6225218;28;19917;-82
2022/06/22 00:38:52;;;;;;;4.60;2.65;;;;;;;;;;6224009;28;20469;-83
2022/06/22 00:41:58;;;;;;;6.63;3.17;;;;;;;;;;6221411;28;20268;-84
2022/06/22 00:45:04;;;;;;;7.38;2.97;;;;;;;;;;6224137;28;20042;-84
2022/06/22 00:48:15;;;;;;;6.50;3.15;;;;;;;;;;6224299;28;20054;-84
2022/06/22 00:51:18;;;;;;;8.50;3.35;;;;;;;;;;6220404;28;20053;-83
2022/06/22 00:54:25;;;;;;;5.05;2.75;;;;;;;;;;6228768;28;20077;-84
2022/06/22 00:57:30;;;;;;;8.07;3.42;;;;;;;;;;6243540;28;20041;-84
2022/06/22 01:00:34;;;;;;;6.15;3.03;;;;;;;;;;6218312;28;20061;-83
2022/06/22 01:03:40;;;;;;;12.57;3.60;;;;;;;;;;6225386;28;20101;-84
2022/06/22 01:06:46;;;;;;;5.70;3.10;;;;;;;;;;6225352;28;20249;-85
2022/06/22 01:09:52;;;;;;;6.93;2.95;;;;;;;;;;6226569;28;20060;-81
2022/06/22 01:12:58;;;;;;;9.18;3.20;;;;;;;;;;6225103;28;20093;-81
2022/06/22 01:16:03;;;;;;;4.85;3.40;;;;;;;;;;6228530;28;20108;-80
2022/06/22 01:19:14;;;;;;;6.10;3.30;;;;;;;;;;6222100;28;20053;-81
2022/06/22 01:22:31;;;;;;;4.05;2.78;;;;;;;;;;6227846;28;20054;-80
2022/06/22 01:25:46;;;;;;;3.60;3.00;;;;;;;;;;6219421;28;20228;-80
2022/06/22 01:28:54;;;;;;;6.20;3.10;;;;;;;;;;6225155;28;20350;-83
2022/06/22 01:32:00;;;;;;;6.03;2.83;;;;;;;;;;6224401;28;20233;-82
2022/06/22 01:35:05;;;;;;;9.63;3.78;;;;;;;;;;6223082;28;20050;-81
2022/06/22 01:38:24;;;;;;;4.28;2.50;;;;;;;;;;6221520;28;20058;-82
2022/06/22 01:41:34;;;;;;;6.55;3.00;;;;;;;;;;6224526;28;20034;-78
2022/06/22 01:44:41;;;;;;;6.43;3.60;;;;;;;;;;6221011;28;20058;-81
2022/06/22 01:47:48;;;;;;;7.78;3.45;;;;;;;;;;6222391;28;20223;-79
2022/06/22 01:50:53;;;;;;;5.30;3.22;;;;;;;;;;6234147;28;20325;-78
2022/06/22 01:53:59;;;;;;;3.83;3.20;;;;;;;;;;6229609;28;20056;-79
2022/06/22 01:57:06;;;;;;;6.45;3.38;;;;;;;;;;6227151;28;20332;-79
2022/06/22 02:00:13;;;;;;;8.02;3.28;;;;;;;;;;6226644;28;20082;-87
2022/06/22 02:03:20;;;;;;;7.50;3.28;;;;;;;;;;6229921;28;20053;-83
2022/06/22 02:10:00;;;;;;;5.07;3.05;;;;;;;;;;6224831;28;20341;-84
2022/06/22 02:13:08;;;;;;;8.20;3.47;;;;;;;;;;6246788;28;20053;-81
2022/06/22 02:16:14;;;;;;;8.23;2.97;;;;;;;;;;6228012;28;20064;-85
2022/06/22 02:19:17;;;;;;;6.50;3.13;;;;;;;;;;6229051;28;20321;-90
2022/06/22 02:22:20;;;;;;;4.40;2.90;;;;;;;;;;6231441;28;20084;-90
2022/06/22 02:25:22;;;;;;;6.63;3.08;;;;;;;;;;6221719;28;20042;-87
2022/06/22 02:28:25;;;;;;;6.13;2.87;;;;;;;;;;6227953;28;20121;-86
2022/06/22 02:31:29;;;;;;;5.80;3.20;;;;;;;;;;6224632;28;20507;-87
2022/06/22 02:34:51;;;;;;;6.32;3.00;;;;;;;;;;6201759;28;20046;-87
2022/06/22 02:37:55;;;;;;;8.57;3.17;;;;;;;;;;6226735;28;20064;-86
2022/06/22 02:44:33;;;;;;;6.40;2.97;;;;;;;;;;6229263;28;20045;-90
2022/06/22 02:47:47;;;;;;;7.65;3.00;;;;;;;;;;6228953;28;20113;-86
2022/06/22 02:50:51;;;;;;;6.88;2.83;;;;;;;;;;6226687;28;20061;-87
2022/06/22 02:53:54;;;;;;;4.75;3.35;;;;;;;;;;6229362;28;20065;-85
2022/06/22 02:57:06;;;;;;;7.80;3.33;;;;;;;;;;6220502;28;20800;-85
2022/06/22 03:00:09;;;;;;;8.48;3.20;;;;;;;;;;6230307;28;20050;-84
2022/06/22 03:03:12;;;;;;;;;;;;;;;;;;6227703;28;20062;-85
2022/06/22 03:06:15;;;;;;;6.10;3.08;;;;;;;;;;6227124;28;19954;-87
2022/06/22 03:09:17;;;;;;;7.03;3.22;;;;;;;;;;6225085;28;20046;-85
2022/06/22 03:12:19;;;;;;;6.20;2.85;;;;;;;;;;6219474;28;20116;-88
2022/06/22 03:15:23;;;;;;;6.55;2.92;;;;;;;;;;6198365;28;20076;-86
2022/06/22 03:18:28;;;;;;;3.33;2.97;;;;;;;;;;6214623;28;20053;-85
2022/06/22 03:21:29;;;;;;;7.50;3.03;;;;;;;;;;6224997;28;20061;-87
2022/06/22 03:24:37;;;;;;;5.22;3.45;;;;;;;;;;6211149;28;20061;-86
2022/06/22 03:27:42;;;;;;;6.50;3.55;;;;;;;;;;6225716;28;20050;-86
2022/06/22 03:30:48;;;;;;;6.95;3.47;;;;;;;;;;6215939;28;20062;-86
2022/06/22 03:33:54;;;;;;;8.32;3.63;;;;;;;;;;6226426;28;20064;-88
2022/06/22 03:36:58;;;;;;;5.60;3.00;;;;;;;;;;6216406;28;20277;-87
2022/06/22 03:40:04;;;;;;;10.88;3.35;;;;;;;;;;6226485;28;20049;-87
2022/06/22 03:43:11;;;;;;;10.30;3.35;;;;;;;;;;6224848;28;20307;-84
2022/06/22 03:46:15;;;;;;;6.70;3.60;;;;;;;;;;6224719;28;20164;-86
2022/06/22 03:49:23;;;;;;;4.78;3.33;;;;;;;;;;6220245;28;20100;-86
2022/06/22 03:52:29;;;;;;;4.93;3.00;;;;;;;;;;6224074;28;20295;-83
2022/06/22 03:55:33;;;;;;;6.20;3.17;;;;;;;;;;6218963;28;20142;-87
2022/06/22 03:58:35;;;;;;;6.25;3.00;;;;;;;;;;6223414;28;20381;-84
2022/06/22 04:01:38;;;;;;;7.63;3.00;;;;;;;;;;6226635;28;20041;-86
2022/06/22 04:04:41;;;;;;;6.60;3.70;;;;;;;;;;6223665;28;20054;-86
2022/06/22 04:07:43;;;;;;;6.55;3.33;;;;;;;;;;6219395;28;20064;-86
2022/06/22 04:10:47;;;;;;;4.43;2.75;;;;;;;;;;6218130;28;20045;-80
2022/06/22 04:13:51;;;;;;;7.80;3.08;;;;;;;;;;6219487;28;20100;-79
2022/06/22 04:16:56;;;;;;;9.38;4.10;;;;;;;;;;6215080;28;20068;-77
2022/06/22 04:20:04;;;;;;;5.55;3.28;;;;;;;;;;6214183;28;20226;-78
2022/06/22 04:23:06;;;;;;;9.60;3.67;;;;;;;;;;6226683;28;20054;-77
2022/06/22 04:26:13;;;;;;;7.47;3.28;;;;;;;;;;6223689;28;20222;-77
2022/06/22 04:29:19;;;;;;;10.00;3.97;;;;;;;;;;6226503;28;20117;-77
2022/06/22 04:32:23;;;;;;;7.57;3.70;;;;;;;;;;6224081;28;20344;-77
2022/06/22 04:35:32;;;;;;;6.35;3.40;;;;;;;;;;6231029;28;20236;-78
2022/06/22 04:38:38;;;;;;;9.93;4.10;;;;;;;;;;6220587;28;20222;-78
2022/06/22 04:41:40;;;;;;;7.97;3.72;;;;;;;;;;6226882;28;20061;-78
2022/06/22 04:44:45;;;;;;;8.93;4.25;;;;;;;;;;6226456;28;20045;-80
2022/06/22 04:47:47;;;;;;;9.18;4.50;;;;;;;;;;6226421;28;20072;-80
2022/06/22 04:50:51;;;;;;;8.40;4.10;;;;;;;;;;6212368;28;20061;-78
2022/06/22 04:53:57;;;;;;;7.75;3.97;;;;;;;;;;6227570;28;20068;-81
2022/06/22 04:57:02;;;;;;;7.25;4.38;;;;;;;;;;6221727;28;20053;-79
2022/06/22 05:00:07;;;;;;;11.57;3.88;;;;;;;;;;6223057;28;20062;-79
2022/06/22 05:03:13;;;;;;;5.95;3.95;;;;;;;;;;6234515;28;20080;-79
2022/06/22 05:06:20;;;;;;;8.38;3.75;;;;;;;;;;6230868;28;20046;-79
2022/06/22 05:09:28;;;;;;;7.18;3.70;;;;;;;;;;6225823;28;20050;-80
2022/06/22 05:12:41;;;;;;;8.80;4.32;;;;;;;;;;6224131;28;20050;-80
2022/06/22 05:15:45;;;;;;;5.50;3.33;;;;;;;;;;6223341;28;20129;-79
2022/06/22 05:18:48;;;;;;;10.45;3.45;;;;;;;;;;6226081;28;20045;-80
2022/06/22 05:21:51;;;;;;;11.52;4.45;;;;;;;;;;6227571;28;20064;-80
2022/06/22 05:24:54;;;;;;;10.18;3.58;;;;;;;;;;6227728;28;20057;-80
2022/06/22 05:28:00;;;;;;;11.35;3.55;;;;;;;;;;6228187;28;20057;-78
2022/06/22 05:31:04;;;;;;;6.82;3.13;;;;;;;;;;6227549;28;20041;-79
2022/06/22 05:34:08;;;;;;;11.38;3.80;;;;;;;;;;6237987;28;20066;-78
2022/06/22 05:37:40;;;;;;;6.00;3.65;;;;;;;;;;6230118;28;20058;-79
2022/06/22 05:40:44;;;;;;;7.32;3.70;;;;;;;;;;6229129;28;20136;-79
2022/06/22 05:43:46;;;;;;;7.90;3.72;;;;;;;;;;6232834;28;20246;-80
2022/06/22 05:46:51;;;;;;;5.07;3.05;;;;;;;;;;6226438;28;20344;-80
2022/06/22 05:49:56;;;;;;;8.00;3.70;;;;;;;;;;6230077;28;20221;-78
2022/06/22 05:53:04;;;;;;;8.93;3.50;;;;;;;;;;6237631;28;20052;-79
2022/06/22 05:56:15;;;;;;;7.15;3.08;;;;;;;;;;6232841;28;20091;-79
2022/06/22 05:59:21;;;;;;;10.15;3.83;;;;;;;;;;6228989;28;20109;-79
2022/06/22 06:02:30;;;;;;;5.82;3.70;;;;;;;;;;6229221;28;20120;-79
2022/06/22 06:05:35;;;;;;;11.65;4.70;;;;;;;;;;6230961;28;20045;-80
2022/06/22 06:08:41;;;;;;;10.40;4.85;;;;;;;;;;6224091;28;20066;-80
2022/06/22 06:11:54;;;;;;;11.27;4.22;;;;;;;;;;6234138;28;20329;-78
2022/06/22 06:14:55;;;;;;;7.55;5.20;;;;;;;;;;6227676;28;20054;-79
2022/06/22 06:17:58;;;;;;;9.85;4.93;;;;;;;;;;6226240;28;20048;-81
2022/06/22 06:21:01;;;;;;;8.52;4.30;;;;;;;;;;6222733;28;20100;-80
2022/06/22 06:24:10;;;;;;;8.52;4.40;;;;;;;;;;6232526;28;20054;-80
2022/06/22 06:30:42;;;;;;;11.40;5.30;;;;;;;;;;6212990;28;20050;-80
2022/06/22 06:33:44;;;;;;;9.60;5.43;;;;;;;;;;6230841;28;20348;-80
2022/06/22 06:36:50;;;;;;;9.95;6.07;;;;;;;;;;6231705;28;20060;-79
2022/06/22 06:39:55;;;;;;;7.85;5.68;;;;;;;;;;6227737;28;20159;-80
2022/06/22 06:43:04;;;;;;;12.60;6.38;;;;;;;;;;6226154;28;20069;-80
2022/06/22 06:46:12;;;;;;;11.75;6.70;;;;;;;;;;6232615;28;20056;-80
2022/06/22 06:49:18;;;;;;;9.80;6.45;;;;;;;;;;6229358;28;20072;-80
2022/06/22 06:52:26;;;;;;;12.30;7.25;;;;;;;;;;6232128;28;20265;-80
2022/06/22 06:55:33;;;;;;;10.63;7.90;;;;;;;;;;6228835;28;20058;-80
2022/06/22 06:58:41;;;;;;;11.85;9.07;;;;;;;;;;6227433;28;20092;-79
2022/06/22 07:01:44;;;;;;;10.02;8.82;;;;;;;;;;6232965;28;20276;-78
2022/06/22 07:04:46;;;;;;;16.40;9.63;;;;;;;;;;6228536;28;20054;-78
2022/06/22 07:07:51;;;;;;;14.07;9.52;;;;;;;;;;6227846;28;20065;-80
2022/06/22 07:10:58;;;;;;;19.23;10.82;;;;;;;;;;6227014;28;20084;-80
2022/06/22 07:14:04;;;;;;;20.98;11.60;;;;;;;;;;6224491;28;20093;-79
2022/06/22 07:17:09;;;;;;;19.40;12.32;;;;;;;;;;6225992;28;20041;-78
2022/06/22 07:20:17;;;;;;;15.18;10.70;;;;;;;;;;6226162;28;20058;-78
2022/06/22 07:23:22;;;;;;;19.33;12.32;;;;;;;;;;6229714;28;20046;-79
2022/06/22 07:26:31;;;;;;;23.60;13.70;;;;;;;;;;6226449;28;20052;-76
2022/06/22 07:29:39;;;;;;;20.08;13.40;;;;;;;;;;6229025;28;20049;-79
2022/06/22 07:32:46;;;;;;;20.25;13.38;;;;;;;;;;6225433;28;20066;-77
2022/06/22 07:35:50;;;;;;;16.33;11.80;;;;;;;;;;6228643;28;20049;-79
2022/06/22 07:38:55;;;;;;;22.27;13.45;;;;;;;;;;6223304;28;20101;-78
2022/06/22 07:41:59;;;;;;;16.35;13.48;;;;;;;;;;6231277;28;20329;-79
2022/06/22 07:45:01;;;;;;;16.55;12.70;;;;;;;;;;6228908;28;20112;-79
2022/06/22 07:48:08;;;;;;;16.83;13.85;;;;;;;;;;6228738;28;20053;-79
2022/06/22 07:51:22;;;;;;;18.80;14.68;;;;;;;;;;6225486;28;20058;-79
2022/06/22 07:54:26;;;;;;;17.83;13.90;;;;;;;;;;6227857;28;20340;-79
2022/06/22 07:57:34;;;;;;;17.98;14.02;;;;;;;;;;6226558;28;20153;-79
2022/06/22 08:00:36;;;;;;;15.82;13.63;;;;;;;;;;6234161;28;20383;-79
2022/06/22 08:03:42;;;;;;;21.63;14.70;;;;;;;;;;6226089;28;20045;-78
2022/06/22 08:06:47;;;;;;;19.40;14.30;;;;;;;;;;6227704;28;20058;-78
2022/06/22 08:09:57;;;;;;;25.63;14.32;;;;;;;;;;6226866;28;20053;-79
2022/06/22 08:13:04;;;;;;;18.60;14.00;;;;;;;;;;6226051;28;20171;-79
2022/06/22 08:16:09;;;;;;;14.95;13.35;;;;;;;;;;6229880;28;20056;-78
2022/06/22 08:19:11;;;;;;;17.73;12.82;;;;;;;;;;6226193;28;20061;-78
2022/06/22 08:22:13;;;;;;;18.67;13.85;;;;;;;;;;6243107;28;20062;-78
2022/06/22 08:25:17;;;;;;;25.25;11.85;;;;;;;;;;6228388;28;20053;-79
2022/06/22 08:28:22;;;;;;;19.20;12.10;;;;;;;;;;6229317;28;20046;-78
2022/06/22 08:31:27;;;;;;;16.70;11.73;;;;;;;;;;6224746;28;20048;-77
2022/06/22 08:34:33;;;;;;;16.33;11.57;;;;;;;;;;6230543;28;20077;-78
2022/06/22 08:37:37;;;;;;;11.95;10.27;;;;;;;;;;6227552;28;20058;-77
2022/06/22 08:40:44;;;;;;;14.38;10.95;;;;;;;;;;6223598;28;20050;-78
2022/06/22 08:43:54;;;;;;;15.90;10.07;;;;;;;;;;6228917;28;20206;-77
2022/06/22 08:47:20;;;;;;;17.08;11.82;;;;;;;;;;6226468;28;20045;-80
2022/06/22 08:50:49;;;;;;;17.83;12.32;;;;;;;;;;6224566;28;20045;-78
2022/06/22 08:54:27;;;;;;;13.48;11.75;;;;;;;;;;6225694;28;20046;-79
2022/06/22 08:57:40;;;;;;;19.08;12.82;;;;;;;;;;6232921;28;20054;-79
2022/06/22 09:00:48;;;;;;;15.05;11.95;;;;;;;;;;6240919;28;20054;-78
2022/06/22 09:04:02;;;;;;;15.35;11.10;;;;;;;;;;6236087;28;20045;-79
2022/06/22 09:07:14;;;;;;;14.15;10.73;;;;;;;;;;6231683;28;20062;-77
2022/06/22 09:10:40;;;;;;;16.88;13.38;;;;;;;;;;6231307;28;20053;-79
2022/06/22 09:14:11;;;;;;;15.77;10.55;;;;;;;;;;6226327;28;20587;-80
2022/06/22 09:17:29;;;;;;;13.65;11.10;;;;;;;;;;6233865;28;20300;-77
2022/06/22 09:20:41;;;;;;;14.13;10.88;;;;;;;;;;6228249;28;20049;-78
2022/06/22 09:23:50;;;;;;;12.45;10.40;;;;;;;;;;6232512;28;20046;-78
2022/06/22 09:27:02;;;;;;;15.40;10.65;;;;;;;;;;6231354;28;20045;-78
2022/06/22 09:30:14;;;;;;;16.00;11.02;;;;;;;;;;6229229;28;20088;-78
2022/06/22 09:33:34;;;;;;;13.63;10.80;;;;;;;;;;6233786;28;20045;-80
2022/06/22 09:36:54;;;;;;;15.20;10.57;;;;;;;;;;6233188;28;20054;-79
2022/06/22 09:40:29;;;;;;;13.63;10.82;;;;;;;;;;6230590;28;20072;-79
2022/06/22 09:44:08;;;;;;;11.30;10.00;;;;;;;;;;6231599;28;20045;-80
2022/06/22 09:47:26;;;;;;;15.10;11.80;;;;;;;;;;6233284;28;20050;-80
2022/06/22 09:50:49;;;;;;;14.85;13.20;;;;;;;;;;6230201;28;20046;-80
2022/06/22 09:58:09;;;;;;;13.10;10.98;;;;;;;;;;6202657;28;20050;-74
2022/06/22 10:01:18;;;;;;;15.13;12.15;;;;;;;;;;6198656;28;20065;-76
2022/06/22 10:04:48;;;;;;;16.92;12.85;;;;;;;;;;6217613;28;20257;-76
2022/06/22 10:08:02;;;;;;;18.77;14.48;;;;;;;;;;6211313;28;20054;-76
2022/06/22 10:11:15;;;;;;;15.63;12.55;;;;;;;;;;6212199;28;20062;-77
2022/06/22 10:17:44;;;;;;;15.40;11.80;;;;;;;;;;6556601;23;20050;-74
2022/06/22 10:20:54;;;;;;;16.63;12.23;;;;;;;;;;6194184;28;20333;-76
2022/06/22 10:24:08;;;;;;;14.18;11.60;;;;;;;;;;6202850;28;20088;-74
2022/06/22 10:27:30;;;;;;;16.88;11.23;;;;;;;;;;6198479;28;20050;-74
2022/06/22 10:30:43;;;;;;;19.10;11.30;;;;;;;;;;6191751;28;20135;-74
2022/06/22 10:34:01;;;;;;;14.45;10.68;;;;;;;;;;6203133;28;20423;-74
2022/06/22 10:37:14;;;;;;;14.13;10.85;;;;;;;;;;6203191;28;20053;-84
2022/06/22 10:48:21;;;;;;;11.13;7.95;;;;;;;;;;6199027;28;20063;-80
2022/06/22 10:51:37;;;;;;;10.90;9.65;;;;;;;;;;6202884;28;20309;-80
2022/06/22 10:54:59;;;;;;;11.35;9.10;;;;;;;;;;6204398;28;20054;-79
2022/06/22 10:58:16;;;;;;;16.73;11.45;;;;;;;;;;6202879;28;20065;-80
2022/06/22 11:01:37;;;;;;;14.52;10.80;;;;;;;;;;6200631;28;20335;-80
2022/06/22 11:05:17;;;;;;;15.27;13.02;;;;;;;;;;6201103;28;20046;-83
2022/06/22 11:08:47;;;;;;;15.18;12.50;;;;;;;;;;6203331;28;20052;-85
2022/06/22 11:12:04;;;;;;;16.52;12.98;;;;;;;;;;6200636;28;20049;-83
2022/06/22 11:15:37;;;;;;;30.70;24.55;;;;;;;;;;6201581;28;20061;-86
2022/06/22 11:19:12;;;;;;;36.50;25.73;;;;;;;;;;6182940;28;20059;-87
2022/06/22 11:22:28;;;;;;;57.45;42.95;;;;;;;;;;6183264;28;20059;-85
2022/06/22 11:33:03;;;;;;;15.27;9.38;;;;;;;;;;6181791;28;20084;-83
2022/06/22 11:36:13;;;;;;;17.10;9.80;;;;;;;;;;6182703;28;20063;-83
2022/06/22 11:39:33;;;;;;;15.05;11.43;;;;;;;;;;6182653;28;20049;-84
2022/06/22 11:42:45;;;;;;;14.30;10.98;;;;;;;;;;6185784;28;20392;-87
2022/06/22 11:45:54;;;;;;;17.70;10.60;;;;;;;;;;6183110;28;20258;-88
2022/06/22 11:49:30;;;;;;;16.00;11.63;;;;;;;;;;6182691;28;20059;-82
2022/06/22 11:52:46;;;;;;;12.32;9.38;;;;;;;;;;6174129;28;20050;-84
2022/06/22 11:55:51;;;;;;;14.02;10.65;;;;;;;;;;6177783;28;20052;-84
2022/06/22 11:59:05;;;;;;;12.52;10.15;;;;;;;;;;6183563;28;20059;-83
2022/06/22 12:02:39;;;;;;;11.95;8.35;;;;;;;;;;6182854;28;20050;-85
2022/06/22 12:05:56;;;;;;;15.40;11.02;;;;;;;;;;6125641;28;20047;-85
2022/06/22 12:09:08;;;;;;;13.48;9.27;;;;;;;;;;6177508;28;20064;-84
2022/06/22 12:12:46;;;;;;;13.27;10.55;;;;;;;;;;6179479;28;20097;-85
2022/06/22 12:15:53;;;;;;;11.88;6.88;;;;;;;;;;6178938;28;20210;-84
2022/06/22 12:19:04;;;;;;;9.18;7.82;;;;;;;;;;6158939;28;20059;-83
2022/06/22 12:22:17;;;;;;;9.25;7.60;;;;;;;;;;6160310;28;20368;-83
2022/06/22 12:25:39;;;;;;;9.00;8.10;;;;;;;;;;6179085;28;20063;-81
2022/06/22 12:29:09;;;;;;;11.13;7.93;;;;;;;;;;6185225;28;20319;-84
2022/06/22 12:32:15;;;;;;;12.35;10.00;;;;;;;;;;6185447;28;20478;-83
2022/06/22 12:35:27;;;;;;;15.05;9.90;;;;;;;;;;6156313;28;20081;-84
2022/06/22 12:38:34;;;;;;;12.57;10.10;;;;;;;;;;6156732;28;20055;-84
2022/06/22 12:41:51;;;;;;;13.75;9.25;;;;;;;;;;6183481;28;20049;-84
2022/06/22 12:45:26;;;;;;;12.93;10.02;;;;;;;;;;6184577;28;20086;-83
2022/06/22 12:48:49;;;;;;;9.52;8.35;;;;;;;;;;6175641;28;20277;-84
2022/06/22 12:51:52;;;;;;;13.15;9.63;;;;;;;;;;6156853;28;20071;-82
2022/06/22 12:54:57;;;;;;;9.88;8.82;;;;;;;;;;6172890;28;20055;-82
2022/06/22 12:58:04;;;;;;;12.63;8.50;;;;;;;;;;6165516;28;20223;-82
2022/06/22 13:01:06;;;;;;;16.88;10.07;;;;;;;;;;6152406;28;20052;-84
2022/06/22 13:04:11;;;;;;;12.10;9.40;;;;;;;;;;6152228;28;20051;-82
2022/06/22 13:07:15;;;;;;;12.15;9.25;;;;;;;;;;6152171;28;20321;-83
2022/06/22 13:10:21;;;;;;;12.38;8.20;;;;;;;;;;6154008;28;20238;-82
2022/06/22 13:13:26;;;;;;;11.27;6.70;;;;;;;;;;6154490;28;20838;-82
2022/06/22 13:16:32;;;;;;;11.43;6.90;;;;;;;;;;6151951;28;20529;-82
2022/06/22 13:19:42;;;;;;;11.70;7.25;;;;;;;;;;6154997;28;20055;-83
2022/06/22 13:22:51;;;;;;;11.20;6.45;;;;;;;;;;6151932;28;20095;-83
2022/06/22 13:26:01;;;;;;;9.85;7.80;;;;;;;;;;6154339;28;20266;-82
2022/06/22 13:29:13;;;;;;;12.07;6.35;;;;;;;;;;6153590;28;20058;-83
2022/06/22 13:32:15;;;;;;;9.88;6.53;;;;;;;;;;6167591;28;20054;-82
2022/06/22 13:35:22;;;;;;;14.70;6.88;;;;;;;;;;6184679;28;20233;-83
2022/06/22 13:38:35;;;;;;;11.75;8.70;;;;;;;;;;6172621;28;20090;-83
2022/06/22 13:41:51;;;;;;;13.15;7.70;;;;;;;;;;6176410;28;20093;-82
2022/06/22 13:45:03;;;;;;;7.95;6.82;;;;;;;;;;6183838;28;20518;-83
2022/06/22 13:48:17;;;;;;;16.33;7.93;;;;;;;;;;6184135;28;20054;-82
2022/06/22 13:51:34;;;;;;;14.73;6.70;;;;;;;;;;6184089;28;20093;-79
2022/06/22 13:54:48;;;;;;;10.27;7.57;;;;;;;;;;6184070;28;20046;-83
2022/06/22 13:57:57;;;;;;;11.75;7.53;;;;;;;;;;6171555;28;20075;-82
2022/06/22 14:01:01;;;;;;;14.80;7.55;;;;;;;;;;6164979;28;20281;-83
2022/06/22 14:04:09;;;;;;;17.10;7.88;;;;;;;;;;6183996;28;20047;-82
2022/06/22 14:07:13;;;;;;;8.70;6.20;;;;;;;;;;6181485;28;20078;-83
2022/06/22 14:10:22;;;;;;;8.98;6.85;;;;;;;;;;6185209;28;20145;-84
2022/06/22 14:13:35;;;;;;;15.88;7.15;;;;;;;;;;6176749;28;20074;-80
2022/06/22 14:16:44;;;;;;;10.40;7.32;;;;;;;;;;6172105;28;20089;-83
2022/06/22 14:19:51;;;;;;;12.52;7.22;;;;;;;;;;6175212;28;20738;-83
2022/06/22 14:22:56;;;;;;;12.65;7.00;;;;;;;;;;6174234;28;20102;-80
2022/06/22 14:26:03;;;;;;;14.80;7.38;;;;;;;;;;6177298;28;20047;-80
2022/06/22 14:29:13;;;;;;;11.27;7.03;;;;;;;;;;6184701;28;20059;-83
2022/06/22 14:32:20;;;;;;;15.07;7.60;;;;;;;;;;6180614;28;20070;-82
2022/06/22 14:35:31;;;;;;;10.18;6.85;;;;;;;;;;6185625;28;20055;-81
2022/06/22 14:38:41;;;;;;;15.10;10.02;;;;;;;;;;6182721;28;20054;-80
2022/06/22 14:41:46;;;;;;;13.18;7.47;;;;;;;;;;6179536;28;20348;-78
2022/06/22 14:44:58;;;;;;;17.55;7.78;;;;;;;;;;6184445;28;20061;-81
2022/06/22 14:48:03;;;;;;;11.52;7.55;;;;;;;;;;6162465;28;20265;-79
2022/06/22 14:51:18;;;;;;;17.90;8.18;;;;;;;;;;6153583;28;20134;-80
2022/06/22 14:54:26;;;;;;;9.38;7.60;;;;;;;;;;6156495;28;20325;-80
2022/06/22 14:57:33;;;;;;;13.75;7.85;;;;;;;;;;6183621;28;20106;-80
2022/06/22 15:00:47;;;;;;;13.10;7.78;;;;;;;;;;6182034;28;20053;-80
2022/06/22 15:03:52;;;;;;;10.57;8.15;;;;;;;;;;6181367;28;20062;-81
2022/06/22 15:07:04;;;;;;;13.82;7.82;;;;;;;;;;6183045;28;20073;-80
2022/06/22 15:10:11;;;;;;;10.93;7.55;;;;;;;;;;6178611;28;20055;-80
2022/06/22 15:13:20;;;;;;;12.40;8.50;;;;;;;;;;6179167;28;20059;-80
2022/06/22 15:16:27;;;;;;;12.75;7.05;;;;;;;;;;6180279;28;20364;-80
2022/06/22 15:19:32;;;;;;;10.98;7.60;;;;;;;;;;6175795;28;20043;-81
2022/06/22 15:22:38;;;;;;;15.85;7.10;;;;;;;;;;6176187;28;20098;-81
2022/06/22 15:25:45;;;;;;;16.90;7.43;;;;;;;;;;6176643;28;20047;-84
2022/06/22 15:28:51;;;;;;;16.75;7.57;;;;;;;;;;6178283;28;20046;-83
2022/06/22 15:31:58;;;;;;;15.13;7.18;;;;;;;;;;6178325;28;20082;-82
2022/06/22 15:35:03;;;;;;;14.15;6.65;;;;;;;;;;6176539;28;20046;-77
2022/06/22 15:38:13;;;;;;;11.60;7.18;;;;;;;;;;6175173;28;20051;-76
2022/06/22 15:41:26;;;;;;;13.57;7.57;;;;;;;;;;6169228;28;20058;-79
2022/06/22 15:44:31;;;;;;;12.50;7.97;;;;;;;;;;6174330;28;20127;-81
2022/06/22 15:47:36;;;;;;;13.75;8.57;;;;;;;;;;6176144;28;20058;-81
2022/06/22 15:50:43;;;;;;;11.93;7.20;;;;;;;;;;6172692;28;20815;-76
2022/06/22 15:53:47;;;;;;;14.65;6.88;;;;;;;;;;6179807;28;20046;-77
2022/06/22 15:56:52;;;;;;;13.90;6.93;;;;;;;;;;6173127;28;20082;-74
2022/06/22 16:00:01;;;;;;;12.68;6.97;;;;;;;;;;6180563;28;20113;-74
2022/06/22 16:03:11;;;;;;;9.10;6.78;;;;;;;;;;6178379;28;20062;-74
2022/06/22 16:06:15;;;;;;;9.45;7.00;;;;;;;;;;6180228;28;20061;-75
2022/06/22 16:09:20;;;;;;;10.95;6.63;;;;;;;;;;6179238;28;20050;-75
2022/06/22 16:15:55;;;;;;;13.98;8.30;;;;;;;;;;6178326;28;20050;-75
2022/06/22 16:19:02;;;;;;;12.13;8.00;;;;;;;;;;6177097;28;20061;-75
2022/06/22 16:22:08;;;;;;;13.68;7.60;;;;;;;;;;6177120;28;20056;-75
2022/06/22 16:25:13;;;;;;;12.93;8.90;;;;;;;;;;6176114;28;20062;-73
2022/06/22 16:28:16;;;;;;;12.07;8.90;;;;;;;;;;6176168;28;20082;-76
2022/06/22 16:31:24;;;;;;;14.95;10.50;;;;;;;;;;6175836;28;20050;-76
2022/06/22 16:34:34;;;;;;;15.98;11.40;;;;;;;;;;6181972;28;20053;-74
2022/06/22 16:37:40;;;;;;;16.25;8.82;;;;;;;;;;6156128;28;20063;-72
2022/06/22 16:40:48;;;;;;;12.70;8.55;;;;;;;;;;6156808;28;20058;-71
2022/06/22 16:43:53;;;;;;;12.95;7.72;;;;;;;;;;6157325;28;20050;-72
2022/06/22 16:47:00;;;;;;;11.55;8.43;;;;;;;;;;6176390;28;20054;-72
2022/06/22 16:50:04;;;;;;;13.32;9.07;;;;;;;;;;6182267;28;20054;-73
2022/06/22 16:53:06;;;;;;;13.60;8.05;;;;;;;;;;6179191;28;20047;-73
2022/06/22 16:56:15;;;;;;;18.17;8.50;;;;;;;;;;6183707;28;20249;-73
2022/06/22 16:59:18;;;;;;;16.73;8.55;;;;;;;;;;6184795;28;20046;-74
2022/06/22 17:02:27;;;;;;;16.25;9.57;;;;;;;;;;6181045;28;20101;-73
2022/06/22 17:05:37;;;;;;;14.52;8.63;;;;;;;;;;6178888;28;20043;-75
2022/06/22 17:08:47;;;;;;;15.70;8.25;;;;;;;;;;6184755;28;20051;-74
2022/06/22 17:11:49;;;;;;;12.15;8.13;;;;;;;;;;6181656;28;20082;-74
2022/06/22 17:14:52;;;;;;;12.75;8.10;;;;;;;;;;6182355;28;20056;-74
2022/06/22 17:17:58;;;;;;;11.38;7.80;;;;;;;;;;6183953;28;20061;-75
2022/06/22 17:21:14;;;;;;;18.85;7.95;;;;;;;;;;6186100;28;20101;-74
2022/06/22 17:24:29;;;;;;;13.60;7.72;;;;;;;;;;6167787;28;20054;-75
2022/06/22 17:27:35;;;;;;;11.25;8.13;;;;;;;;;;6182990;28;21419;-75
2022/06/22 17:30:41;;;;;;;12.07;7.40;;;;;;;;;;6184364;28;20445;-75
2022/06/22 17:33:44;;;;;;;12.50;7.38;;;;;;;;;;6186379;28;20074;-74
2022/06/22 17:36:58;;;;;;;14.65;8.13;;;;;;;;;;6183594;28;20229;-75
2022/06/22 17:40:08;;;;;;;15.27;8.45;;;;;;;;;;6184995;28;20337;-74
2022/06/22 17:43:14;;;;;;;14.68;7.07;;;;;;;;;;6186606;28;20088;-75
2022/06/22 17:46:17;;;;;;;14.90;8.05;;;;;;;;;;6182057;28;20058;-75
2022/06/22 17:49:19;;;;;;;;;;;;;;;;;;6184719;28;20325;-79
2022/06/22 17:52:26;;;;;;;14.30;7.28;;;;;;;;;;6185586;28;19926;-77
2022/06/22 17:55:31;;;;;;;15.55;7.53;;;;;;;;;;6183944;28;20117;-74
2022/06/22 17:59:09;;;;;;;12.98;7.07;;;;;;;;;;6173440;28;20058;-75
2022/06/22 18:02:21;;;;;;;11.82;6.75;;;;;;;;;;6175702;28;20038;-75
2022/06/22 18:05:51;;;;;;;11.60;7.10;;;;;;;;;;6161355;28;20051;-73
2022/06/22 18:08:58;;;;;;;10.50;7.07;;;;;;;;;;6173026;28;20047;-74
2022/06/22 18:12:03;;;;;;;11.05;7.00;;;;;;;;;;6156176;28;20055;-81
2022/06/22 18:15:12;;;;;;;17.60;7.57;;;;;;;;;;6153328;28;20054;-81
2022/06/22 18:18:17;;;;;;;11.50;6.68;;;;;;;;;;6157085;28;20059;-82
2022/06/22 18:21:26;;;;;;;18.02;6.93;;;;;;;;;;6158228;28;20047;-81
2022/06/22 18:24:36;;;;;;;12.95;7.40;;;;;;;;;;6155876;28;20120;-78
2022/06/22 18:27:45;;;;;;;13.10;7.05;;;;;;;;;;6153779;28;20055;-75
2022/06/22 18:30:49;;;;;;;18.33;8.00;;;;;;;;;;6156863;28;20047;-74
2022/06/22 18:33:55;;;;;;;13.80;7.35;;;;;;;;;;6157407;28;20059;-73
2022/06/22 18:37:00;;;;;;;20.05;7.22;;;;;;;;;;6156894;28;20057;-74
2022/06/22 18:43:34;;;;;;;11.32;6.78;;;;;;;;;;6185956;28;20043;-85
2022/06/22 18:46:38;;;;;;;16.20;7.75;;;;;;;;;;6184928;28;20064;-85
2022/06/22 18:49:44;;;;;;;20.23;7.38;;;;;;;;;;6186034;28;20086;-84
2022/06/22 18:52:52;;;;;;;15.02;7.18;;;;;;;;;;6180668;28;20055;-85
2022/06/22 18:56:00;;;;;;;16.35;7.63;;;;;;;;;;6182802;28;20294;-84
2022/06/22 18:59:06;;;;;;;13.48;6.70;;;;;;;;;;6182581;28;20061;-80
2022/06/22 19:02:19;;;;;;;11.60;6.82;;;;;;;;;;6184726;28;20117;-80
2022/06/22 19:05:24;;;;;;;12.83;7.13;;;;;;;;;;6172105;28;20110;-78
2022/06/22 19:08:30;;;;;;;13.05;7.05;;;;;;;;;;6156452;28;20471;-80
2022/06/22 19:11:36;;;;;;;15.20;7.88;;;;;;;;;;6169613;28;20106;-83
2022/06/22 19:14:40;;;;;;;14.23;7.22;;;;;;;;;;6176976;28;20109;-82
2022/06/22 19:17:51;;;;;;;12.55;7.07;;;;;;;;;;6177522;28;20043;-83
2022/06/22 19:21:00;;;;;;;15.57;7.22;;;;;;;;;;6181691;28;20054;-81